Time;durP1;ratioP1;P1;durP2;ratioP2;P2;SDS_P1;SDS_P2;PMS_P1;PMS_P2;Temp;Humidity;BMP_temperature;BMP_pressure;BME280_temperature;BME280_humidity;BME280_pressure;Samples;Min_cycle;Max_cycle;Signal;HPM_P1;HPM_P2
2023/07/16 00:02:39;;;;;;;6.40;4.90;;;;;;;22.33;59.04;99689.55;129081;1273;114800;-66
2023/07/16 00:05:41;;;;;;;5.80;4.30;;;;;;;22.32;59.03;99692.73;129281;1275;114840;-66
2023/07/16 00:08:44;;;;;;;4.90;4.30;;;;;;;22.30;59.68;99692.16;129350;1267;114748;-66
2023/07/16 00:11:46;;;;;;;6.50;4.90;;;;;;;22.31;59.60;99690.24;129237;1271;116623;-66
2023/07/16 00:14:48;;;;;;;7.90;5.00;;;;;;;22.29;59.75;99688.30;129264;1267;114868;-67
2023/07/16 00:17:50;;;;;;;8.50;5.10;;;;;;;22.27;60.24;99691.80;129303;1274;114850;-66
2023/07/16 00:20:52;;;;;;;5.60;4.40;;;;;;;22.25;60.32;99693.08;129255;1288;115262;-66
2023/07/16 00:23:55;;;;;;;7.00;4.40;;;;;;;22.23;60.33;99688.02;129053;1271;115204;-66
2023/07/16 00:26:58;;;;;;;7.30;4.70;;;;;;;22.21;60.54;99683.30;129273;1270;114829;-66
2023/07/16 00:30:00;;;;;;;5.50;5.00;;;;;;;22.19;60.55;99686.67;129294;1288;114775;-66
2023/07/16 00:33:02;;;;;;;9.10;4.90;;;;;;;22.16;60.88;99686.06;129034;1286;114945;-66
2023/07/16 00:36:04;;;;;;;5.60;4.40;;;;;;;22.12;61.19;99683.19;129210;1267;114720;-65
2023/07/16 00:39:06;;;;;;;7.90;4.80;;;;;;;22.10;61.27;99678.02;129264;1270;114769;-66
2023/07/16 00:42:08;;;;;;;9.60;4.50;;;;;;;22.06;61.42;99679.73;129049;1270;114952;-66
2023/07/16 00:45:13;;;;;;;5.60;4.80;;;;;;;22.02;61.52;99684.52;129269;1270;114808;-66
2023/07/16 00:48:16;;;;;;;8.00;5.00;;;;;;;21.97;61.84;99683.18;128980;1277;114924;-65
2023/07/16 00:51:18;;;;;;;7.70;4.70;;;;;;;21.92;61.91;99683.88;129443;1270;114839;-65
2023/07/16 00:54:21;;;;;;;7.00;5.10;;;;;;;21.89;62.15;99682.98;129304;1268;114866;-66
2023/07/16 00:57:23;;;;;;;6.60;4.80;;;;;;;21.86;62.30;99681.71;129302;1270;115457;-65
2023/07/16 01:00:25;;;;;;;9.60;5.30;;;;;;;21.82;62.58;99678.30;129246;1271;115318;-67
2023/07/16 01:03:27;;;;;;;10.50;5.30;;;;;;;21.79;62.58;99675.51;129222;1269;114830;-66
2023/07/16 01:06:41;;;;;;;5.80;4.50;;;;;;;21.76;62.88;99676.75;129284;1270;115275;-66
2023/07/16 01:09:44;;;;;;;8.10;5.50;;;;;;;21.71;62.86;99675.59;129307;1286;114763;-67
2023/07/16 01:12:46;;;;;;;6.90;4.70;;;;;;;21.67;63.14;99676.39;129269;1274;116422;-67
2023/07/16 01:15:48;;;;;;;6.50;4.80;;;;;;;21.62;63.34;99671.67;129138;1270;114854;-74
2023/07/16 01:18:51;;;;;;;7.90;5.00;;;;;;;21.58;63.56;99671.65;129421;1270;114813;-74
2023/07/16 01:22:21;;;;;;;7.30;5.20;;;;;;;21.57;63.55;99667.08;129589;1288;114797;-74
2023/07/16 01:26:28;;;;;;;7.90;5.20;;;;;;;21.54;63.85;99660.11;129284;1270;114866;-75
2023/07/16 01:29:35;;;;;;;10.50;4.80;;;;;;;21.50;63.96;99657.74;128167;1290;114865;-72
2023/07/16 01:32:37;;;;;;;6.50;5.40;;;;;;;21.47;63.95;99657.77;128144;1283;114965;-71
2023/07/16 01:35:40;;;;;;;7.80;4.60;;;;;;;21.44;64.30;99664.08;128169;1280;114840;-72
2023/07/16 01:38:43;;;;;;;7.20;5.00;;;;;;;21.41;64.07;99665.52;128143;1282;114887;-72
2023/07/16 01:41:45;;;;;;;6.00;5.40;;;;;;;21.37;64.26;99662.27;128157;1276;115498;-71
2023/07/16 01:44:47;;;;;;;5.40;4.90;;;;;;;21.32;64.31;99662.60;128125;1280;115277;-74
2023/07/16 01:48:10;;;;;;;6.00;5.00;;;;;;;21.27;64.59;99661.84;128134;1283;115201;-72
2023/07/16 01:51:13;;;;;;;7.40;5.00;;;;;;;21.19;64.84;99662.29;128129;1290;114916;-73
2023/07/16 01:54:18;;;;;;;6.50;5.20;;;;;;;21.15;65.30;99656.74;127807;1283;127965;-76
2023/07/16 01:57:20;;;;;;;7.00;4.80;;;;;;;21.12;65.26;99654.54;128305;1280;115390;-75
2023/07/16 02:00:22;;;;;;;7.90;4.80;;;;;;;21.08;65.40;99652.02;128128;1290;114892;-78
2023/07/16 02:03:24;;;;;;;7.90;5.40;;;;;;;21.04;65.60;99646.73;128324;1273;115232;-77
2023/07/16 02:06:26;;;;;;;6.50;5.10;;;;;;;21.02;65.86;99647.55;129227;1277;114775;-72
2023/07/16 02:09:29;;;;;;;5.70;5.10;;;;;;;21.00;65.77;99654.36;129357;1265;114778;-73
2023/07/16 02:12:31;;;;;;;6.00;5.30;;;;;;;20.96;65.86;99655.60;129412;1270;114813;-75
2023/07/16 02:15:33;;;;;;;6.60;5.20;;;;;;;20.93;65.91;99656.11;129403;1265;114712;-75
2023/07/16 02:18:34;;;;;;;15.40;4.90;;;;;;;20.89;66.36;99655.22;129058;1281;115566;-73
2023/07/16 02:21:37;;;;;;;8.10;4.50;;;;;;;20.87;66.62;99654.58;129411;1265;114990;-74
2023/07/16 02:24:39;;;;;;;5.60;4.80;;;;;;;20.86;66.80;99653.52;129353;1269;114791;-74
2023/07/16 02:27:41;;;;;;;5.40;4.50;;;;;;;20.86;66.83;99657.05;129544;1270;114785;-74
2023/07/16 02:30:43;;;;;;;5.60;4.90;;;;;;;20.85;66.94;99662.36;129660;1267;114858;-74
2023/07/16 02:33:45;;;;;;;9.30;5.30;;;;;;;20.85;66.83;99676.39;129398;1269;114734;-74
2023/07/16 02:36:47;;;;;;;6.30;5.20;;;;;;;20.84;66.86;99688.61;128885;1265;127879;-74
2023/07/16 02:39:49;;;;;;;6.00;5.40;;;;;;;20.83;66.93;99704.11;129221;1279;114671;-73
2023/07/16 02:42:51;;;;;;;6.60;5.00;;;;;;;20.82;67.02;99713.55;129343;1267;114896;-73
2023/07/16 02:45:53;;;;;;;5.20;4.40;;;;;;;20.80;67.01;99713.52;129124;1267;114853;-73
2023/07/16 02:48:55;;;;;;;7.00;5.30;;;;;;;20.77;67.15;99706.19;129302;1267;114769;-72
2023/07/16 02:51:58;;;;;;;6.00;5.10;;;;;;;20.75;67.58;99694.25;129375;1269;114835;-72
2023/07/16 02:55:00;;;;;;;8.70;5.10;;;;;;;20.74;67.97;99687.63;128977;1288;115407;-73
2023/07/16 02:58:04;;;;;;;5.80;5.10;;;;;;;20.74;67.90;99698.48;129157;1265;114853;-73
2023/07/16 03:01:06;;;;;;;7.70;5.40;;;;;;;20.75;67.80;99704.05;129262;1267;115342;-73
2023/07/16 03:04:08;;;;;;;5.70;4.90;;;;;;;20.74;67.83;99709.86;129265;1270;114757;-73
2023/07/16 03:07:10;;;;;;;8.30;5.40;;;;;;;20.74;68.06;99711.70;129372;1270;114920;-73
2023/07/16 03:10:12;;;;;;;6.10;5.50;;;;;;;20.74;68.40;99709.92;129303;1271;114754;-73
2023/07/16 03:13:14;;;;;;;6.90;5.00;;;;;;;20.75;68.37;99716.41;129369;1265;114754;-74
2023/07/16 03:16:17;;;;;;;5.70;4.90;;;;;;;20.77;68.36;99717.50;129646;1279;114733;-73
2023/07/16 03:19:19;;;;;;;6.30;5.40;;;;;;;20.79;68.51;99720.34;129466;1269;129181;-74
2023/07/16 03:22:22;;;;;;;8.00;5.90;;;;;;;20.82;68.70;99724.08;129349;1282;114763;-73
2023/07/16 03:25:25;;;;;;;7.90;4.90;;;;;;;20.85;68.63;99721.20;129310;1287;115127;-73
2023/07/16 03:28:27;;;;;;;6.70;5.40;;;;;;;20.89;68.94;99722.63;129404;1279;114822;-74
2023/07/16 03:31:29;;;;;;;5.60;5.10;;;;;;;20.93;68.94;99724.20;128949;1273;235144;-73
2023/07/16 03:34:31;;;;;;;7.60;5.60;;;;;;;20.97;68.99;99732.64;129476;1270;115176;-75
2023/07/16 03:37:33;;;;;;;8.00;5.60;;;;;;;21.00;68.97;99750.91;129387;1265;114829;-73
2023/07/16 03:40:35;;;;;;;7.80;5.20;;;;;;;21.08;69.09;99800.55;129660;1265;128562;-74
2023/07/16 03:43:37;;;;;;;6.30;5.30;;;;;;;21.17;69.27;99865.41;129340;1265;114819;-73
2023/07/16 03:46:39;;;;;;;6.40;5.40;;;;;;;21.29;69.34;99893.58;129455;1265;114777;-74
2023/07/16 03:49:41;;;;;;;6.70;5.20;;;;;;;21.43;69.37;99892.89;129350;1272;114757;-74
2023/07/16 03:52:44;;;;;;;5.80;5.20;;;;;;;21.58;69.15;99857.27;129299;1270;114911;-73
2023/07/16 03:55:46;;;;;;;7.60;4.80;;;;;;;21.69;68.98;99874.27;129329;1267;114681;-73
2023/07/16 03:58:48;;;;;;;6.80;5.40;;;;;;;21.82;68.93;99872.42;129329;1288;115197;-73
2023/07/16 04:01:50;;;;;;;17.30;6.30;;;;;;;21.95;69.03;99868.33;129111;1270;127953;-74
2023/07/16 04:04:52;;;;;;;11.70;5.20;;;;;;;22.06;68.65;99879.77;129332;1271;114835;-73
2023/07/16 04:07:54;;;;;;;8.10;4.80;;;;;;;22.14;68.66;99896.72;129375;1267;114746;-73
2023/07/16 04:10:57;;;;;;;8.40;4.90;;;;;;;22.22;68.61;99901.15;129295;1269;114751;-73
2023/07/16 04:14:02;;;;;;;5.70;4.80;;;;;;;22.29;68.44;99906.06;129300;1265;114845;-73
2023/07/16 04:17:05;;;;;;;6.40;5.10;;;;;;;22.36;68.48;99909.52;129290;1267;114764;-73
2023/07/16 04:20:07;;;;;;;9.30;5.20;;;;;;;22.43;68.40;99907.16;129231;1270;114782;-73
2023/07/16 04:23:09;;;;;;;7.20;5.40;;;;;;;22.52;68.46;99908.94;129234;1278;115147;-73
2023/07/16 04:26:11;;;;;;;7.10;5.30;;;;;;;22.64;68.63;99918.09;129341;1270;114838;-73
2023/07/16 04:29:15;;;;;;;7.00;4.90;;;;;;;22.75;68.49;99931.12;129276;1270;114793;-73
2023/07/16 04:32:17;;;;;;;5.10;4.60;;;;;;;22.87;68.37;99936.04;129086;1272;114874;-73
2023/07/16 04:35:19;;;;;;;8.60;5.10;;;;;;;23.00;68.19;99948.64;129242;1270;115287;-73
2023/07/16 04:38:21;;;;;;;7.10;4.90;;;;;;;23.14;67.97;99954.66;129338;1265;115702;-73
2023/07/16 04:41:23;;;;;;;6.40;4.60;;;;;;;23.27;67.65;99958.21;129021;1271;128905;-73
2023/07/16 04:44:25;;;;;;;5.60;4.10;;;;;;;23.54;67.82;99966.30;129224;1271;115385;-74
2023/07/16 04:47:28;;;;;;;6.10;4.30;;;;;;;24.27;67.81;99968.15;129351;1270;114698;-74
2023/07/16 04:50:30;;;;;;;5.00;4.30;;;;;;;25.04;67.03;99962.88;129141;1270;115041;-74
2023/07/16 04:53:31;;;;;;;8.30;4.30;;;;;;;26.12;66.08;99964.98;129347;1265;114764;-74
2023/07/16 04:56:33;;;;;;;7.40;3.90;;;;;;;27.30;64.60;99967.60;129621;1270;114840;-74
2023/07/16 04:59:35;;;;;;;7.60;4.20;;;;;;;28.46;62.76;99962.91;129345;1273;115025;-74
2023/07/16 05:02:37;;;;;;;8.50;4.60;;;;;;;29.57;60.92;99971.19;129330;1288;115379;-74
2023/07/16 05:05:40;;;;;;;4.60;3.60;;;;;;;30.55;59.10;99985.59;129145;1267;114847;-74
2023/07/16 05:08:42;;;;;;;10.80;4.80;;;;;;;31.40;57.14;99991.59;129233;1281;115208;-74
2023/07/16 05:11:44;;;;;;;8.60;4.60;;;;;;;32.06;55.32;99996.52;129247;1270;114838;-74
2023/07/16 05:14:47;;;;;;;6.00;4.00;;;;;;;32.57;53.69;100003.06;129358;1270;114765;-74
2023/07/16 05:17:49;;;;;;;9.90;5.10;;;;;;;32.90;52.37;100005.48;129430;1270;114787;-74
2023/07/16 05:20:54;;;;;;;10.10;4.10;;;;;;;33.04;51.05;99995.19;129289;1267;115224;-73
2023/07/16 05:23:56;;;;;;;5.50;4.10;;;;;;;33.19;50.13;100001.74;129277;1269;120290;-74
2023/07/16 05:26:58;;;;;;;4.20;3.80;;;;;;;33.41;49.07;100005.74;129256;1269;114850;-73
2023/07/16 05:30:00;;;;;;;10.20;4.20;;;;;;;33.64;48.23;100005.41;129282;1265;114814;-74
2023/07/16 05:33:03;;;;;;;6.10;3.30;;;;;;;33.79;47.36;100003.36;129045;1267;114839;-73
2023/07/16 05:36:05;;;;;;;6.10;4.00;;;;;;;33.84;46.49;100011.11;129249;1269;114843;-74
2023/07/16 05:39:08;;;;;;;5.00;3.40;;;;;;;33.89;46.11;100011.64;129332;1270;115203;-71
2023/07/16 05:42:10;;;;;;;4.80;4.00;;;;;;;33.95;45.22;100011.98;129290;1288;114898;-73
2023/07/16 05:45:12;;;;;;;7.60;3.60;;;;;;;33.90;44.86;100013.85;129244;1288;114895;-73
2023/07/16 05:48:14;;;;;;;9.40;4.20;;;;;;;33.86;44.24;100013.42;129439;1270;114683;-73
2023/07/16 05:51:16;;;;;;;4.40;3.40;;;;;;;33.87;44.00;100018.20;129241;1267;115211;-73
2023/07/16 05:54:18;;;;;;;8.60;3.50;;;;;;;33.82;43.51;100020.71;129285;1270;115271;-71
2023/07/16 05:57:20;;;;;;;11.00;3.90;;;;;;;33.57;42.95;100023.60;129304;1288;114777;-71
2023/07/16 06:00:22;;;;;;;5.30;3.10;;;;;;;33.30;43.00;100023.39;129063;1270;114943;-72
2023/07/16 06:03:25;;;;;;;9.30;3.60;;;;;;;33.10;42.81;100020.73;129290;1288;114770;-72
2023/07/16 06:06:28;;;;;;;6.00;3.20;;;;;;;33.06;42.78;100023.52;129302;1270;114845;-72
2023/07/16 06:09:30;;;;;;;7.00;2.70;;;;;;;32.95;42.62;100024.88;129301;1265;115249;-73
2023/07/16 06:12:32;;;;;;;7.20;3.10;;;;;;;32.73;42.29;100039.05;129361;1269;115131;-72
2023/07/16 06:15:34;;;;;;;8.70;3.20;;;;;;;32.55;42.45;100043.02;129287;1288;114815;-73
2023/07/16 06:18:36;;;;;;;3.60;2.50;;;;;;;32.49;42.51;100047.73;129290;1265;115301;-72
2023/07/16 06:21:38;;;;;;;6.90;2.60;;;;;;;32.54;42.36;100054.21;129345;1270;114850;-72
2023/07/16 06:24:40;;;;;;;10.20;2.80;;;;;;;32.59;41.93;100058.99;129329;1288;114815;-72
2023/07/16 06:27:44;;;;;;;7.10;2.80;;;;;;;32.74;41.87;100069.34;129274;1270;120244;-73
2023/07/16 06:30:46;;;;;;;2.60;2.20;;;;;;;33.24;41.53;100075.52;129293;1269;114799;-72
2023/07/16 06:33:49;;;;;;;3.60;2.00;;;;;;;33.58;41.03;100084.87;129335;1288;114841;-72
2023/07/16 06:36:51;;;;;;;5.00;2.70;;;;;;;33.53;40.47;100084.23;129296;1270;114786;-72
2023/07/16 06:39:53;;;;;;;4.70;2.40;;;;;;;33.41;40.25;100087.22;129279;1271;115308;-73
2023/07/16 06:42:55;;;;;;;4.20;2.50;;;;;;;33.26;40.27;100099.97;129137;1267;115032;-72
2023/07/16 06:45:57;;;;;;;3.50;2.60;;;;;;;33.07;40.20;100103.05;129105;1270;114973;-72
2023/07/16 06:48:59;;;;;;;7.70;2.80;;;;;;;32.90;40.42;100106.77;129057;1289;114837;-73
2023/07/16 06:52:02;;;;;;;9.30;3.00;;;;;;;32.97;40.71;100111.30;129042;1267;114905;-73
2023/07/16 06:55:04;;;;;;;5.70;2.50;;;;;;;33.00;40.57;100112.77;129068;1289;115088;-72
2023/07/16 06:58:10;;;;;;;4.50;2.40;;;;;;;32.95;40.63;100116.54;129245;1270;114749;-73
2023/07/16 07:01:12;;;;;;;4.80;2.10;;;;;;;32.79;40.69;100117.88;129168;1270;114856;-71
2023/07/16 07:04:14;;;;;;;5.90;2.40;;;;;;;32.54;40.37;100121.67;129320;1265;114726;-72
2023/07/16 07:07:16;;;;;;;4.70;2.10;;;;;;;32.26;40.67;100121.92;129361;1285;115367;-72
2023/07/16 07:10:19;;;;;;;5.60;2.30;;;;;;;32.03;40.88;100129.77;129269;1270;118934;-71
2023/07/16 07:13:24;;;;;;;3.30;2.10;;;;;;;31.85;41.22;100132.01;129337;1265;114760;-72
2023/07/16 07:16:26;;;;;;;2.60;2.20;;;;;;;31.71;41.13;100133.03;129139;1271;115020;-72
2023/07/16 07:19:28;;;;;;;2.30;2.10;;;;;;;31.58;41.45;100135.63;129327;1268;115346;-72
2023/07/16 07:22:30;;;;;;;3.60;1.80;;;;;;;31.48;41.69;100141.08;129263;1271;114914;-73
2023/07/16 07:25:32;;;;;;;3.10;2.30;;;;;;;31.37;41.82;100133.70;129377;1270;114720;-73
2023/07/16 07:28:34;;;;;;;7.10;2.00;;;;;;;31.34;41.87;100133.98;129396;1270;114759;-73
2023/07/16 07:31:36;;;;;;;2.80;1.70;;;;;;;31.32;41.85;100132.06;129303;1270;114813;-73
2023/07/16 07:34:39;;;;;;;1.70;1.60;;;;;;;31.36;41.92;100127.23;129003;1272;116388;-73
2023/07/16 07:37:41;;;;;;;2.10;1.60;;;;;;;31.45;41.94;100123.84;129298;1265;114764;-73
2023/07/16 07:40:43;;;;;;;2.60;1.80;;;;;;;31.57;41.83;100119.57;129365;1270;115498;-73
2023/07/16 07:43:46;;;;;;;1.40;1.30;;;;;;;31.72;41.92;100119.44;129163;1276;114724;-71
2023/07/16 07:46:48;;;;;;;8.60;1.80;;;;;;;31.90;42.24;100115.90;129235;1268;115462;-71
2023/07/16 07:49:52;;;;;;;3.10;1.50;;;;;;;32.14;42.10;100113.85;129349;1267;114847;-71
2023/07/16 07:52:54;;;;;;;2.10;1.30;;;;;;;32.36;41.78;100118.91;128994;1270;119303;-72
2023/07/16 07:55:56;;;;;;;2.50;1.80;;;;;;;32.36;41.41;100115.42;129122;1286;115241;-72
2023/07/16 07:58:58;;;;;;;1.70;1.60;;;;;;;32.18;41.13;100115.09;129163;1266;114773;-72
2023/07/16 08:02:03;;;;;;;3.90;1.80;;;;;;;32.03;41.35;100123.70;129066;1289;115362;-71
2023/07/16 08:05:06;;;;;;;1.70;1.60;;;;;;;31.98;41.47;100124.98;129098;1270;114764;-72
2023/07/16 08:08:08;;;;;;;3.20;1.80;;;;;;;32.19;41.48;100112.65;129171;1270;114770;-72
2023/07/16 08:11:10;;;;;;;1.50;1.40;;;;;;;32.60;41.37;100096.98;129091;1288;114797;-72
2023/07/16 08:14:12;;;;;;;1.80;1.70;;;;;;;32.82;41.26;100094.16;129339;1265;114739;-73
2023/07/16 08:17:14;;;;;;;1.90;1.70;;;;;;;32.93;40.78;100093.20;129347;1265;114733;-72
2023/07/16 08:20:16;;;;;;;5.20;1.70;;;;;;;32.96;40.70;100087.75;129203;1269;115118;-71
2023/07/16 08:23:18;;;;;;;2.10;1.70;;;;;;;32.96;40.40;100080.29;129430;1265;114752;-73
2023/07/16 08:26:20;;;;;;;1.60;1.50;;;;;;;33.02;40.21;100084.03;129322;1269;114758;-72
2023/07/16 08:29:22;;;;;;;2.30;1.70;;;;;;;33.19;40.09;100089.61;129286;1269;114821;-73
2023/07/16 08:32:24;;;;;;;4.40;1.50;;;;;;;33.31;39.82;100094.29;129332;1265;115748;-73
2023/07/16 08:35:26;;;;;;;1.90;1.60;;;;;;;33.42;39.78;100093.91;129180;1288;118944;-71
2023/07/16 08:38:28;;;;;;;1.90;1.70;;;;;;;33.55;39.60;100087.45;129304;1288;114748;-74
2023/07/16 08:41:31;;;;;;;1.50;1.30;;;;;;;33.66;39.30;100085.15;129403;1265;114789;-74
2023/07/16 08:44:33;;;;;;;2.60;1.60;;;;;;;33.71;38.96;100084.58;129132;1270;114801;-74
2023/07/16 08:47:35;;;;;;;4.60;1.60;;;;;;;33.73;38.81;100081.79;129346;1267;115633;-74
2023/07/16 08:50:38;;;;;;;2.10;1.60;;;;;;;33.89;39.21;100077.05;129409;1270;114853;-74
2023/07/16 08:53:40;;;;;;;4.30;1.60;;;;;;;34.24;38.83;100073.76;129298;1270;114830;-75
2023/07/16 08:56:46;;;;;;;4.10;1.50;;;;;;;34.65;38.64;100066.82;129278;1288;115121;-72
2023/07/16 08:59:48;;;;;;;3.50;1.90;;;;;;;34.96;38.26;100058.86;128940;1271;116674;-74
2023/07/16 09:02:52;;;;;;;4.00;2.40;;;;;;;35.06;37.83;100054.48;129274;1270;115440;-72
2023/07/16 09:05:54;;;;;;;2.40;1.80;;;;;;;35.09;37.75;100058.70;129331;1265;114753;-73
2023/07/16 09:08:56;;;;;;;2.20;1.60;;;;;;;34.96;37.28;100057.02;129367;1270;114744;-73
2023/07/16 09:11:58;;;;;;;1.90;1.60;;;;;;;34.70;37.40;100058.65;129470;1286;114866;-72
2023/07/16 09:15:01;;;;;;;2.20;2.00;;;;;;;34.35;37.19;100052.34;129362;1270;120218;-72
2023/07/16 09:18:03;;;;;;;3.00;1.90;;;;;;;34.01;37.45;100072.73;129311;1270;114807;-72
2023/07/16 09:21:06;;;;;;;1.80;1.60;;;;;;;33.67;37.84;100087.63;129280;1270;114864;-74
2023/07/16 09:24:09;;;;;;;2.30;1.70;;;;;;;33.30;38.18;100095.58;129318;1265;114843;-76
2023/07/16 09:27:12;;;;;;;4.50;1.90;;;;;;;32.92;38.84;100077.89;129362;1264;114755;-81
2023/07/16 09:30:17;;;;;;;1.90;1.80;;;;;;;32.58;40.10;100064.92;129369;1268;115255;-81
2023/07/16 09:33:21;;;;;;;2.20;1.90;;;;;;;32.24;41.19;100075.02;129399;1267;120392;-79
2023/07/16 09:36:27;;;;;;;2.40;2.20;;;;;;;31.91;41.48;100069.61;129181;1267;114939;-79
2023/07/16 09:39:29;;;;;;;1.90;1.70;;;;;;;31.62;41.94;100066.31;129498;1264;114868;-77
2023/07/16 09:42:31;;;;;;;2.10;1.90;;;;;;;31.45;42.27;100072.44;129367;1269;115247;-81
2023/07/16 09:45:33;;;;;;;2.80;2.00;;;;;;;31.39;42.76;100078.29;129478;1288;114705;-78
2023/07/16 09:48:35;;;;;;;2.00;1.90;;;;;;;31.40;43.23;100080.07;129330;1270;114769;-82
2023/07/16 09:51:38;;;;;;;2.00;1.70;;;;;;;31.42;43.04;100076.45;129355;1265;114741;-80
2023/07/16 09:54:40;;;;;;;4.20;2.50;;;;;;;31.37;42.54;100086.23;129326;1269;114868;-81
2023/07/16 09:57:43;;;;;;;4.30;2.00;;;;;;;31.41;43.08;100094.34;129143;1265;115286;-78
2023/07/16 10:00:47;;;;;;;4.00;1.90;;;;;;;31.55;43.04;100100.33;129255;1270;114836;-79
2023/07/16 10:03:52;;;;;;;1.90;1.60;;;;;;;31.78;43.10;100110.98;129112;1270;114708;-78
2023/07/16 10:07:01;;;;;;;1.70;1.60;;;;;;;32.07;42.65;100114.65;129391;1270;114788;-77
2023/07/16 10:10:08;;;;;;;2.60;1.70;;;;;;;32.43;42.87;100126.95;129269;1272;119463;-78
2023/07/16 10:13:13;;;;;;;2.60;1.60;;;;;;;32.78;42.26;100138.04;129366;1288;115332;-78
2023/07/16 10:16:23;;;;;;;2.30;1.60;;;;;;;33.01;41.84;100130.96;129121;1265;114980;-78
2023/07/16 10:19:25;;;;;;;2.10;1.90;;;;;;;33.22;41.51;100138.05;129277;1268;114946;-77
2023/07/16 10:22:43;;;;;;;2.90;1.80;;;;;;;33.34;41.27;100146.72;129319;1265;115288;-78
2023/07/16 10:26:05;;;;;;;1.90;1.70;;;;;;;33.41;41.26;100142.99;129243;1265;119257;-75
2023/07/16 10:29:07;;;;;;;2.60;2.40;;;;;;;33.40;40.59;100140.51;129378;1280;115223;-79
2023/07/16 10:32:10;;;;;;;4.00;3.10;;;;;;;33.31;40.38;100147.34;129505;1265;114766;-79
2023/07/16 10:35:13;;;;;;;4.30;3.00;;;;;;;33.10;40.43;100148.41;129250;1270;115154;-76
2023/07/16 10:38:15;;;;;;;4.30;2.80;;;;;;;32.92;40.91;100155.55;129735;1267;115324;-78
2023/07/16 10:41:17;;;;;;;2.70;2.50;;;;;;;32.69;41.12;100159.39;129786;1267;114763;-74
2023/07/16 10:44:20;;;;;;;5.90;4.50;;;;;;;32.43;41.44;100164.59;129480;1287;114921;-65
2023/07/16 10:47:39;;;;;;;1.90;1.80;;;;;;;32.14;41.74;100169.23;129284;1286;115197;-65
2023/07/16 10:50:41;;;;;;;2.40;2.20;;;;;;;31.79;42.10;100175.15;128888;1273;115497;-67
2023/07/16 10:53:44;;;;;;;2.40;2.00;;;;;;;31.47;42.55;100183.08;129454;1267;114764;-65
2023/07/16 10:56:48;;;;;;;3.70;2.00;;;;;;;31.21;42.84;100185.09;129352;1286;114783;-65
2023/07/16 10:59:54;;;;;;;2.30;1.90;;;;;;;30.90;42.85;100181.41;129127;1265;115189;-62
2023/07/16 11:02:56;;;;;;;2.20;2.00;;;;;;;30.62;43.46;100182.84;129207;1288;114811;-64
2023/07/16 11:06:08;;;;;;;2.00;1.90;;;;;;;30.34;43.81;100185.29;129154;1270;114784;-66
2023/07/16 11:09:11;;;;;;;3.60;2.30;;;;;;;30.06;44.05;100187.68;129129;1265;114794;-65
2023/07/16 11:12:15;;;;;;;2.20;1.60;;;;;;;29.87;44.52;100188.27;129018;1269;115120;-64
2023/07/16 11:15:17;;;;;;;2.40;1.70;;;;;;;29.71;44.93;100186.96;128973;1283;120235;-64
2023/07/16 11:18:23;;;;;;;2.40;2.00;;;;;;;29.54;45.20;100190.63;129081;1281;114795;-64
2023/07/16 11:21:25;;;;;;;4.10;1.80;;;;;;;29.30;45.20;100189.79;128963;1265;114759;-64
2023/07/16 11:24:31;;;;;;;2.50;1.90;;;;;;;29.06;45.74;100192.88;128914;1270;116517;-64
2023/07/16 11:27:34;;;;;;;3.10;2.00;;;;;;;28.86;46.17;100190.78;128894;1288;114855;-64
2023/07/16 11:30:36;;;;;;;2.70;1.70;;;;;;;28.72;46.58;100189.28;129144;1271;114794;-65
2023/07/16 11:33:42;;;;;;;3.10;2.00;;;;;;;28.58;46.89;100190.88;129050;1270;114847;-64
2023/07/16 11:36:44;;;;;;;2.30;1.80;;;;;;;28.51;47.29;100193.41;128818;1270;114923;-64
2023/07/16 11:39:47;;;;;;;2.00;1.90;;;;;;;28.50;47.77;100199.79;128972;1270;114772;-63
2023/07/16 11:42:49;;;;;;;1.50;1.40;;;;;;;28.49;47.74;100202.60;128941;1283;114881;-64
2023/07/16 11:45:51;;;;;;;4.10;2.00;;;;;;;28.46;47.52;100205.44;128822;1288;114980;-65
2023/07/16 11:48:54;;;;;;;2.20;1.60;;;;;;;28.49;47.85;100205.64;129121;1265;120257;-65
2023/07/16 11:51:58;;;;;;;2.60;2.00;;;;;;;28.54;47.66;100202.29;128931;1267;114749;-64
2023/07/16 11:55:00;;;;;;;4.00;3.00;;;;;;;28.57;47.44;100205.12;128914;1272;114741;-64
2023/07/16 11:58:02;;;;;;;1.50;1.40;;;;;;;28.61;47.12;100208.86;128799;1270;114823;-65
2023/07/16 12:01:05;;;;;;;2.80;1.90;;;;;;;28.60;46.77;100206.98;129237;1281;114880;-66
2023/07/16 12:04:06;;;;;;;2.00;1.70;;;;;;;28.56;46.58;100206.72;129080;1273;114788;-65
2023/07/16 12:07:08;;;;;;;1.90;1.40;;;;;;;28.50;46.57;100205.70;129282;1270;114883;-64
2023/07/16 12:10:11;;;;;;;2.90;1.90;;;;;;;28.41;46.53;100205.48;128950;1288;114798;-63
2023/07/16 12:13:14;;;;;;;1.70;1.60;;;;;;;28.37;46.69;100208.23;128746;1278;114767;-63
2023/07/16 12:16:17;;;;;;;2.00;1.60;;;;;;;28.39;46.75;100208.20;129033;1285;114765;-64
2023/07/16 12:19:19;;;;;;;1.70;1.60;;;;;;;28.40;46.83;100204.70;129003;1269;114751;-63
2023/07/16 12:22:21;;;;;;;2.40;1.70;;;;;;;28.48;47.01;100204.30;128739;1287;114772;-62
2023/07/16 12:25:24;;;;;;;1.40;1.30;;;;;;;28.55;46.94;100201.20;128965;1265;114776;-64
2023/07/16 12:28:26;;;;;;;3.00;1.50;;;;;;;28.64;46.83;100198.02;128813;1271;119711;-65
2023/07/16 12:31:31;;;;;;;1.60;1.40;;;;;;;28.80;47.13;100193.18;129006;1265;115271;-64
2023/07/16 12:34:33;;;;;;;3.60;1.70;;;;;;;28.97;47.12;100187.39;128994;1281;114831;-64
2023/07/16 12:37:35;;;;;;;4.50;1.70;;;;;;;29.09;47.06;100191.16;129008;1282;114745;-62
2023/07/16 12:40:40;;;;;;;1.90;1.60;;;;;;;29.23;46.83;100193.21;128719;1287;115339;-62
2023/07/16 12:43:42;;;;;;;2.00;1.60;;;;;;;29.36;46.64;100197.15;128634;1273;115084;-64
2023/07/16 12:46:45;;;;;;;1.80;1.70;;;;;;;29.46;46.51;100190.38;128892;1284;114760;-65
2023/07/16 12:49:47;;;;;;;2.10;1.40;;;;;;;29.52;46.45;100185.14;129021;1270;138371;-65
2023/07/16 12:52:49;;;;;;;4.10;1.70;;;;;;;29.58;46.13;100185.38;128773;1286;115631;-64
2023/07/16 12:55:52;;;;;;;1.70;1.60;;;;;;;29.59;46.20;100183.61;129020;1270;114843;-65
2023/07/16 12:58:54;;;;;;;2.80;1.60;;;;;;;29.63;46.16;100180.86;128937;1281;114742;-64
2023/07/16 13:01:57;;;;;;;3.70;1.90;;;;;;;29.67;46.08;100177.14;128914;1271;114722;-64
2023/07/16 13:04:59;;;;;;;4.60;1.90;;;;;;;29.72;45.92;100179.84;128922;1271;114776;-64
2023/07/16 13:08:01;;;;;;;1.70;1.60;;;;;;;29.77;46.24;100184.36;128899;1271;114843;-63
2023/07/16 13:11:04;;;;;;;1.70;1.60;;;;;;;29.79;46.32;100181.23;129101;1269;114824;-62
2023/07/16 13:14:06;;;;;;;1.80;1.70;;;;;;;29.79;46.13;100182.76;129289;1269;115536;-67
2023/07/16 13:17:09;;;;;;;2.50;1.50;;;;;;;29.76;46.14;100185.55;129408;1269;114760;-65
2023/07/16 13:20:11;;;;;;;2.30;1.80;;;;;;;29.69;46.23;100193.48;129326;1271;114767;-63
2023/07/16 13:23:13;;;;;;;1.70;1.60;;;;;;;29.58;46.77;100196.56;129343;1270;114900;-63
2023/07/16 13:26:15;;;;;;;1.80;1.70;;;;;;;29.46;46.74;100203.46;128977;1271;114782;-62
2023/07/16 13:29:17;;;;;;;2.00;1.80;;;;;;;29.32;46.51;100209.04;129008;1285;120725;-63
2023/07/16 13:32:20;;;;;;;1.80;1.60;;;;;;;29.17;46.67;100207.18;128888;1270;114767;-63
2023/07/16 13:35:25;;;;;;;1.40;1.30;;;;;;;29.10;47.04;100204.11;128949;1270;114921;-64
2023/07/16 13:38:27;;;;;;;2.80;2.00;;;;;;;29.06;47.18;100209.76;128922;1270;114753;-66
2023/07/16 13:41:29;;;;;;;3.40;1.60;;;;;;;29.02;47.30;100207.25;129355;1283;114846;-66
2023/07/16 13:44:33;;;;;;;1.70;1.50;;;;;;;29.01;47.53;100204.39;129416;1286;114738;-63
2023/07/16 13:47:35;;;;;;;2.10;1.70;;;;;;;29.06;47.82;100207.05;128988;1282;120014;-64
2023/07/16 13:50:37;;;;;;;2.30;2.00;;;;;;;29.16;47.98;100209.75;128925;1269;114747;-65
2023/07/16 13:53:40;;;;;;;2.00;1.70;;;;;;;29.32;48.10;100211.55;129076;1265;114820;-64
2023/07/16 13:56:42;;;;;;;2.60;1.80;;;;;;;29.50;48.08;100214.47;129153;1270;115205;-65